Terminal Aerodrome Forecast
Issued by NWS

Current Version | Previous Version | Graphics & Text | Print | Product List | Glossary On
Versions: 1 2 3 4 5 6 7 8 9 10 11 12 13 14 15 16 17 18 19 20 21 22
327
FTUS41 KRLX 260539
TAFCKB
TAF
KCKB 260539Z 2606/2706 00000KT P6SM BKN070
     FM261400 25006KT P6SM FEW070
     FM261800 25009G15KT P6SM BKN060
     FM262300 27007KT P6SM SCT060
     FM270200 VRB03KT P6SM BKN060=

USA.gov is the U.S. government's official web portal to all federal, state and local government web resources and services.